createdAt,value
2023-02-11T00:24:35.682Z,45.10
2023-02-11T00:27:08.558Z,44.20
2023-02-11T00:29:39.348Z,44.60
2023-02-11T00:32:10.565Z,45.00
2023-02-11T00:34:43.020Z,44.30
2023-02-11T00:50:11.750Z,42.10
2023-02-11T00:52:51.566Z,42.90
2023-02-11T00:58:33.922Z,42.10
2023-02-11T01:02:47.006Z,42.30
2023-02-11T01:11:11.434Z,41.90
2023-02-11T01:13:56.987Z,41.70
2023-02-11T01:16:41.279Z,41.90
2023-02-11T01:19:10.713Z,41.20
2023-02-11T01:21:43.123Z,40.90
2023-02-11T01:24:23.971Z,40.00
2023-02-11T01:26:53.473Z,40.60
2023-02-11T01:29:40.000Z,41.40
2023-02-11T01:32:41.949Z,40.20
2023-02-11T01:35:21.896Z,40.20
2023-02-11T01:55:38.343Z,39.60
2023-02-11T01:58:55.637Z,38.50
2023-02-11T02:01:27.258Z,38.40
2023-02-11T02:03:59.318Z,37.70
2023-02-11T02:06:32.214Z,38.50
2023-02-11T02:09:08.188Z,37.60
2023-02-11T02:11:39.517Z,36.90
2023-02-11T02:14:08.892Z,37.50
2023-02-11T02:16:42.311Z,37.00
2023-02-11T02:19:14.756Z,35.20
2023-02-11T02:22:15.424Z,36.70
2023-02-11T02:33:23.895Z,35.60
2023-02-11T02:34:55.009Z,36.00
2023-02-11T02:37:37.942Z,34.10
2023-02-11T02:40:30.551Z,33.70
2023-02-11T02:43:24.576Z,33.40
2023-02-11T02:48:39.083Z,33.50
2023-02-11T02:51:26.307Z,33.60
2023-02-11T02:54:13.859Z,32.90
2023-02-11T02:56:48.295Z,32.00
2023-02-11T02:59:39.152Z,32.40
2023-02-11T03:15:42.784Z,31.30
2023-02-11T03:18:14.246Z,31.60
2023-02-11T03:20:52.368Z,30.80
2023-02-11T03:23:25.057Z,31.50
2023-02-11T03:26:03.002Z,30.70
2023-02-11T03:29:27.821Z,30.90
2023-02-11T03:35:39.455Z,31.50
2023-02-11T03:41:26.487Z,30.40
2023-02-11T03:44:07.748Z,29.30
2023-02-11T03:49:54.878Z,29.60
2023-02-11T03:52:51.739Z,29.70
2023-02-11T03:55:35.137Z,29.80
2023-02-11T03:58:49.925Z,29.70
2023-02-11T04:08:28.200Z,29.50
2023-02-11T04:11:22.365Z,30.60
2023-02-11T04:14:12.198Z,30.70
2023-02-11T08:01:04.087Z,23.80
2023-02-11T08:03:33.988Z,24.60
2023-02-11T08:06:15.935Z,24.60
2023-02-11T08:08:45.718Z,24.30
2023-02-11T08:11:19.643Z,24.80
2023-02-11T08:13:52.240Z,25.60
2023-02-11T08:16:24.593Z,25.10
2023-02-11T08:18:55.108Z,25.70
2023-02-11T08:21:24.690Z,25.70
2023-02-11T08:23:54.491Z,26.10
2023-02-11T08:26:25.665Z,26.50
2023-02-11T08:28:55.870Z,25.90
2023-02-11T08:31:51.324Z,26.00
2023-02-11T08:34:21.212Z,26.50
2023-02-11T08:36:51.287Z,26.30
2023-02-11T08:39:23.114Z,26.60
2023-02-11T08:41:56.147Z,27.20
2023-02-11T08:44:26.344Z,26.40
2023-02-11T08:46:56.069Z,26.60
2023-02-11T08:49:25.553Z,27.00
2023-02-11T08:51:56.728Z,27.80
2023-02-11T08:54:26.587Z,28.10
2023-02-11T08:56:56.184Z,29.00
2023-02-11T08:59:25.738Z,28.80
2023-02-11T22:30:06.504Z,62.00
2023-02-11T22:32:35.944Z,62.50
2023-02-11T22:35:06.068Z,62.30
2023-02-11T22:37:36.488Z,62.00
2023-02-11T22:40:06.136Z,61.40
2023-02-11T22:42:35.958Z,61.30
2023-02-11T22:45:06.416Z,60.50
2023-02-11T22:47:39.240Z,60.90
2023-02-11T22:50:09.104Z,60.90
2023-02-11T22:52:42.304Z,60.90
2023-02-11T22:55:12.113Z,60.50
2023-02-11T22:57:46.229Z,60.00
2023-02-11T23:00:16.222Z,59.20
2023-02-11T23:03:00.151Z,58.50
2023-02-11T23:05:55.165Z,58.50
2023-02-11T23:08:24.806Z,57.90
2023-02-11T23:10:54.583Z,57.90
2023-02-11T23:13:24.943Z,57.60
2023-02-11T23:15:54.667Z,57.30
2023-02-11T23:18:24.255Z,56.90
2023-02-11T23:20:53.641Z,57.00
2023-02-11T23:23:22.985Z,56.80
2023-02-11T23:25:53.633Z,55.90
2023-02-11T23:28:23.206Z,56.00
2023-02-11T23:30:53.116Z,55.30
2023-02-11T23:33:22.811Z,54.50
2023-02-11T23:35:53.596Z,54.60
2023-02-11T23:38:23.209Z,53.90
2023-02-11T23:40:53.548Z,53.90
2023-02-11T23:43:24.452Z,53.50
2023-02-11T23:45:54.241Z,53.70
2023-02-11T23:48:23.815Z,53.40
2023-02-11T23:50:53.170Z,53.60
2023-02-11T23:53:22.578Z,53.00
2023-02-11T23:55:52.068Z,52.50
2023-02-11T23:58:21.623Z,52.20
